sensor_id;sensor_type;location;lat;lon;timestamp;temperature;humidity
8269;DHT22;4174;48.304;16.364;2022-12-29T00:05:59;3.50;99.90
8269;DHT22;4174;48.304;16.364;2022-12-29T00:12:03;3.40;99.90
8269;DHT22;4174;48.304;16.364;2022-12-29T00:18:06;3.20;99.90
8269;DHT22;4174;48.304;16.364;2022-12-29T00:24:13;3.20;99.90
8269;DHT22;4174;48.304;16.364;2022-12-29T00:30:21;3.10;99.90
8269;DHT22;4174;48.304;16.364;2022-12-29T00:36:31;2.90;99.90
8269;DHT22;4174;48.304;16.364;2022-12-29T00:42:34;2.90;99.90
8269;DHT22;4174;48.304;16.364;2022-12-29T00:48:43;2.80;99.90
8269;DHT22;4174;48.304;16.364;2022-12-29T00:54:51;2.60;99.90
8269;DHT22;4174;48.304;16.364;2022-12-29T01:01:02;2.40;99.90
8269;DHT22;4174;48.304;16.364;2022-12-29T01:07:04;2.20;99.90
8269;DHT22;4174;48.304;16.364;2022-12-29T01:13:08;2.10;99.90
8269;DHT22;4174;48.304;16.364;2022-12-29T01:19:11;2.00;99.90
8269;DHT22;4174;48.304;16.364;2022-12-29T01:25:14;1.90;99.90
8269;DHT22;4174;48.304;16.364;2022-12-29T01:31:17;1.80;99.90
8269;DHT22;4174;48.304;16.364;2022-12-29T01:37:21;1.70;99.90
8269;DHT22;4174;48.304;16.364;2022-12-29T01:43:47;1.70;99.90
8269;DHT22;4174;48.304;16.364;2022-12-29T01:49:50;1.70;99.90
8269;DHT22;4174;48.304;16.364;2022-12-29T01:55:54;1.90;99.90
8269;DHT22;4174;48.304;16.364;2022-12-29T02:01:58;1.90;99.90
8269;DHT22;4174;48.304;16.364;2022-12-29T02:08:01;1.90;99.90
8269;DHT22;4174;48.304;16.364;2022-12-29T02:14:09;1.90;99.90
8269;DHT22;4174;48.304;16.364;2022-12-29T02:26:54;2.00;99.90
8269;DHT22;4174;48.304;16.364;2022-12-29T02:39:35;2.10;99.90
8269;DHT22;4174;48.304;16.364;2022-12-29T02:51:53;2.20;99.90
8269;DHT22;4174;48.304;16.364;2022-12-29T02:58:06;1.90;99.90
8269;DHT22;4174;48.304;16.364;2022-12-29T03:04:28;1.90;99.90
8269;DHT22;4174;48.304;16.364;2022-12-29T03:10:59;1.80;99.90
8269;DHT22;4174;48.304;16.364;2022-12-29T03:23:27;1.80;99.90
8269;DHT22;4174;48.304;16.364;2022-12-29T03:29:30;1.60;99.90
8269;DHT22;4174;48.304;16.364;2022-12-29T03:35:34;1.70;99.90
8269;DHT22;4174;48.304;16.364;2022-12-29T03:41:35;1.70;99.90
8269;DHT22;4174;48.304;16.364;2022-12-29T03:47:39;1.60;99.90
8269;DHT22;4174;48.304;16.364;2022-12-29T03:53:42;1.50;99.90
8269;DHT22;4174;48.304;16.364;2022-12-29T03:59:46;1.50;99.90
8269;DHT22;4174;48.304;16.364;2022-12-29T04:05:49;1.40;99.90
8269;DHT22;4174;48.304;16.364;2022-12-29T04:11:53;1.50;99.90
8269;DHT22;4174;48.304;16.364;2022-12-29T04:17:57;1.50;99.90
8269;DHT22;4174;48.304;16.364;2022-12-29T04:24:01;1.40;99.90
8269;DHT22;4174;48.304;16.364;2022-12-29T04:30:06;1.30;99.90
8269;DHT22;4174;48.304;16.364;2022-12-29T04:36:11;1.30;99.90
8269;DHT22;4174;48.304;16.364;2022-12-29T04:42:15;1.30;99.90
8269;DHT22;4174;48.304;16.364;2022-12-29T04:48:19;1.50;99.90
8269;DHT22;4174;48.304;16.364;2022-12-29T04:54:22;1.50;99.90
8269;DHT22;4174;48.304;16.364;2022-12-29T05:00:26;1.60;99.90
8269;DHT22;4174;48.304;16.364;2022-12-29T05:06:30;1.60;99.90
8269;DHT22;4174;48.304;16.364;2022-12-29T05:12:34;1.60;99.90
8269;DHT22;4174;48.304;16.364;2022-12-29T05:18:36;1.70;99.90
8269;DHT22;4174;48.304;16.364;2022-12-29T05:24:40;1.80;99.90
8269;DHT22;4174;48.304;16.364;2022-12-29T05:30:43;1.90;99.90
8269;DHT22;4174;48.304;16.364;2022-12-29T05:36:47;2.00;99.90
8269;DHT22;4174;48.304;16.364;2022-12-29T05:42:50;1.90;99.90
8269;DHT22;4174;48.304;16.364;2022-12-29T05:48:54;2.00;99.90
8269;DHT22;4174;48.304;16.364;2022-12-29T05:54:58;1.90;99.90
8269;DHT22;4174;48.304;16.364;2022-12-29T06:01:01;2.00;99.90
8269;DHT22;4174;48.304;16.364;2022-12-29T06:07:05;1.90;99.90
8269;DHT22;4174;48.304;16.364;2022-12-29T06:13:09;1.90;99.90
8269;DHT22;4174;48.304;16.364;2022-12-29T06:19:12;1.60;99.90
8269;DHT22;4174;48.304;16.364;2022-12-29T06:25:16;1.70;99.90
8269;DHT22;4174;48.304;16.364;2022-12-29T06:31:20;1.60;99.90
8269;DHT22;4174;48.304;16.364;2022-12-29T06:37:24;1.70;99.90
8269;DHT22;4174;48.304;16.364;2022-12-29T06:43:28;1.80;99.90
8269;DHT22;4174;48.304;16.364;2022-12-29T06:49:31;1.80;99.90
8269;DHT22;4174;48.304;16.364;2022-12-29T06:55:35;1.90;99.90
8269;DHT22;4174;48.304;16.364;2022-12-29T07:01:38;2.10;99.90
8269;DHT22;4174;48.304;16.364;2022-12-29T07:07:43;1.90;99.90
8269;DHT22;4174;48.304;16.364;2022-12-29T07:13:46;1.70;99.90
8269;DHT22;4174;48.304;16.364;2022-12-29T07:19:50;1.80;99.90
8269;DHT22;4174;48.304;16.364;2022-12-29T07:26:02;2.00;99.90
8269;DHT22;4174;48.304;16.364;2022-12-29T07:32:04;2.10;99.90
8269;DHT22;4174;48.304;16.364;2022-12-29T07:38:09;2.30;99.90
8269;DHT22;4174;48.304;16.364;2022-12-29T07:44:12;2.30;99.90
8269;DHT22;4174;48.304;16.364;2022-12-29T07:50:16;2.50;99.90
8269;DHT22;4174;48.304;16.364;2022-12-29T07:56:20;2.40;99.90
8269;DHT22;4174;48.304;16.364;2022-12-29T08:02:24;2.50;99.90
8269;DHT22;4174;48.304;16.364;2022-12-29T08:08:29;2.30;99.90
8269;DHT22;4174;48.304;16.364;2022-12-29T08:14:32;2.20;99.90
8269;DHT22;4174;48.304;16.364;2022-12-29T08:20:36;1.90;99.90
8269;DHT22;4174;48.304;16.364;2022-12-29T08:26:40;2.00;99.90
8269;DHT22;4174;48.304;16.364;2022-12-29T08:32:44;2.20;99.90
8269;DHT22;4174;48.304;16.364;2022-12-29T08:38:48;2.30;99.90
8269;DHT22;4174;48.304;16.364;2022-12-29T08:44:51;2.20;99.90
8269;DHT22;4174;48.304;16.364;2022-12-29T08:50:55;2.30;99.90
8269;DHT22;4174;48.304;16.364;2022-12-29T08:56:59;2.30;99.90
8269;DHT22;4174;48.304;16.364;2022-12-29T09:03:02;2.30;99.90
8269;DHT22;4174;48.304;16.364;2022-12-29T09:09:06;2.20;99.90
8269;DHT22;4174;48.304;16.364;2022-12-29T09:15:10;1.90;99.90
8269;DHT22;4174;48.304;16.364;2022-12-29T09:21:13;2.20;99.90
8269;DHT22;4174;48.304;16.364;2022-12-29T09:27:17;2.10;99.90
8269;DHT22;4174;48.304;16.364;2022-12-29T09:33:21;2.20;99.90
8269;DHT22;4174;48.304;16.364;2022-12-29T09:39:26;2.20;99.90
8269;DHT22;4174;48.304;16.364;2022-12-29T09:45:32;2.20;99.90
8269;DHT22;4174;48.304;16.364;2022-12-29T09:51:41;2.40;99.90
8269;DHT22;4174;48.304;16.364;2022-12-29T09:57:49;2.20;99.90
8269;DHT22;4174;48.304;16.364;2022-12-29T10:03:52;2.20;99.90
8269;DHT22;4174;48.304;16.364;2022-12-29T10:10:04;2.30;99.90
8269;DHT22;4174;48.304;16.364;2022-12-29T10:16:09;2.50;99.90
8269;DHT22;4174;48.304;16.364;2022-12-29T10:22:18;2.40;99.90
8269;DHT22;4174;48.304;16.364;2022-12-29T10:28:28;2.60;99.90
8269;DHT22;4174;48.304;16.364;2022-12-29T10:34:29;2.30;99.90
8269;DHT22;4174;48.304;16.364;2022-12-29T10:40:42;2.40;99.90
8269;DHT22;4174;48.304;16.364;2022-12-29T10:46:54;2.50;99.90
8269;DHT22;4174;48.304;16.364;2022-12-29T10:52:49;2.50;99.90
8269;DHT22;4174;48.304;16.364;2022-12-29T10:58:52;2.70;99.90
8269;DHT22;4174;48.304;16.364;2022-12-29T11:05:00;2.60;99.90
8269;DHT22;4174;48.304;16.364;2022-12-29T11:11:03;2.60;99.90
8269;DHT22;4174;48.304;16.364;2022-12-29T11:17:09;2.40;99.90
8269;DHT22;4174;48.304;16.364;2022-12-29T11:29:27;2.40;99.90
8269;DHT22;4174;48.304;16.364;2022-12-29T11:35:34;2.40;99.90
8269;DHT22;4174;48.304;16.364;2022-12-29T11:41:37;2.40;99.90
8269;DHT22;4174;48.304;16.364;2022-12-29T11:47:41;2.60;99.90
8269;DHT22;4174;48.304;16.364;2022-12-29T11:53:45;2.70;99.90
8269;DHT22;4174;48.304;16.364;2022-12-29T11:59:50;2.90;99.90
8269;DHT22;4174;48.304;16.364;2022-12-29T12:05:54;2.90;99.90
8269;DHT22;4174;48.304;16.364;2022-12-29T12:11:57;3.10;99.90
8269;DHT22;4174;48.304;16.364;2022-12-29T12:18:05;3.20;99.90
8269;DHT22;4174;48.304;16.364;2022-12-29T12:24:13;3.20;99.90
8269;DHT22;4174;48.304;16.364;2022-12-29T12:30:30;3.20;99.90
8269;DHT22;4174;48.304;16.364;2022-12-29T12:43:38;3.40;99.90
8269;DHT22;4174;48.304;16.364;2022-12-29T12:49:45;3.30;99.90
8269;DHT22;4174;48.304;16.364;2022-12-29T13:09:15;3.40;99.90
8269;DHT22;4174;48.304;16.364;2022-12-29T13:15:45;3.40;99.90
8269;DHT22;4174;48.304;16.364;2022-12-29T13:22:03;3.60;99.90
8269;DHT22;4174;48.304;16.364;2022-12-29T13:28:18;4.00;99.90
8269;DHT22;4174;48.304;16.364;2022-12-29T13:34:45;4.10;99.90
8269;DHT22;4174;48.304;16.364;2022-12-29T13:40:55;3.90;99.90
8269;DHT22;4174;48.304;16.364;2022-12-29T13:46:56;4.10;99.90
8269;DHT22;4174;48.304;16.364;2022-12-29T13:53:19;4.20;99.90
8269;DHT22;4174;48.304;16.364;2022-12-29T13:59:51;4.40;99.90
8269;DHT22;4174;48.304;16.364;2022-12-29T14:06:15;4.30;99.90
8269;DHT22;4174;48.304;16.364;2022-12-29T14:12:29;3.90;99.90
8269;DHT22;4174;48.304;16.364;2022-12-29T14:18:34;4.20;99.90
8269;DHT22;4174;48.304;16.364;2022-12-29T14:24:39;4.10;99.90
8269;DHT22;4174;48.304;16.364;2022-12-29T14:30:48;4.20;99.90
8269;DHT22;4174;48.304;16.364;2022-12-29T14:36:57;3.90;99.90
8269;DHT22;4174;48.304;16.364;2022-12-29T14:42:59;3.90;99.90
8269;DHT22;4174;48.304;16.364;2022-12-29T14:49:04;3.90;99.90
8269;DHT22;4174;48.304;16.364;2022-12-29T14:55:30;3.90;99.90
8269;DHT22;4174;48.304;16.364;2022-12-29T15:01:42;4.00;99.90
8269;DHT22;4174;48.304;16.364;2022-12-29T15:07:42;4.10;99.90
8269;DHT22;4174;48.304;16.364;2022-12-29T15:13:45;3.90;99.90
8269;DHT22;4174;48.304;16.364;2022-12-29T15:19:48;3.80;99.90
8269;DHT22;4174;48.304;16.364;2022-12-29T15:25:54;3.80;99.90
8269;DHT22;4174;48.304;16.364;2022-12-29T15:31:59;3.70;99.90
8269;DHT22;4174;48.304;16.364;2022-12-29T15:38:19;3.40;99.90
8269;DHT22;4174;48.304;16.364;2022-12-29T15:44:20;3.40;99.90
8269;DHT22;4174;48.304;16.364;2022-12-29T15:50:23;3.40;99.90
8269;DHT22;4174;48.304;16.364;2022-12-29T15:56:29;3.30;99.90
8269;DHT22;4174;48.304;16.364;2022-12-29T16:02:31;3.20;99.90
8269;DHT22;4174;48.304;16.364;2022-12-29T16:08:36;3.20;99.90
8269;DHT22;4174;48.304;16.364;2022-12-29T16:14:41;3.30;99.90
8269;DHT22;4174;48.304;16.364;2022-12-29T16:20:43;3.30;99.90
8269;DHT22;4174;48.304;16.364;2022-12-29T16:26:50;3.30;99.90
8269;DHT22;4174;48.304;16.364;2022-12-29T16:32:56;3.20;99.90
8269;DHT22;4174;48.304;16.364;2022-12-29T16:39:21;3.30;99.90
8269;DHT22;4174;48.304;16.364;2022-12-29T16:52:12;3.20;99.90
8269;DHT22;4174;48.304;16.364;2022-12-29T16:58:18;3.20;99.90
8269;DHT22;4174;48.304;16.364;2022-12-29T17:04:20;3.20;99.90
8269;DHT22;4174;48.304;16.364;2022-12-29T17:10:25;3.20;99.90
8269;DHT22;4174;48.304;16.364;2022-12-29T17:16:28;3.10;99.90
8269;DHT22;4174;48.304;16.364;2022-12-29T17:22:32;3.20;99.90
8269;DHT22;4174;48.304;16.364;2022-12-29T17:28:36;3.30;99.90
8269;DHT22;4174;48.304;16.364;2022-12-29T17:34:40;3.30;99.90
8269;DHT22;4174;48.304;16.364;2022-12-29T17:40:42;3.50;99.90
8269;DHT22;4174;48.304;16.364;2022-12-29T17:46:46;3.60;99.90
8269;DHT22;4174;48.304;16.364;2022-12-29T17:52:53;3.50;99.90
8269;DHT22;4174;48.304;16.364;2022-12-29T17:58:55;3.60;99.90
8269;DHT22;4174;48.304;16.364;2022-12-29T18:04:59;3.60;99.90
8269;DHT22;4174;48.304;16.364;2022-12-29T18:11:08;4.00;99.90
8269;DHT22;4174;48.304;16.364;2022-12-29T18:17:10;4.00;99.90
8269;DHT22;4174;48.304;16.364;2022-12-29T18:23:21;4.00;99.90
8269;DHT22;4174;48.304;16.364;2022-12-29T18:29:24;4.10;99.90
8269;DHT22;4174;48.304;16.364;2022-12-29T18:35:29;4.10;99.90
8269;DHT22;4174;48.304;16.364;2022-12-29T18:41:30;4.20;99.90
8269;DHT22;4174;48.304;16.364;2022-12-29T18:47:34;4.40;99.90
8269;DHT22;4174;48.304;16.364;2022-12-29T18:53:38;4.40;99.90
8269;DHT22;4174;48.304;16.364;2022-12-29T18:59:42;4.60;99.90
8269;DHT22;4174;48.304;16.364;2022-12-29T19:05:45;4.50;99.90
8269;DHT22;4174;48.304;16.364;2022-12-29T19:11:49;4.40;99.90
8269;DHT22;4174;48.304;16.364;2022-12-29T19:17:53;4.50;99.90
8269;DHT22;4174;48.304;16.364;2022-12-29T19:23:56;4.60;99.90
8269;DHT22;4174;48.304;16.364;2022-12-29T19:29:59;4.50;99.90
8269;DHT22;4174;48.304;16.364;2022-12-29T19:36:04;4.60;99.90
8269;DHT22;4174;48.304;16.364;2022-12-29T19:42:08;4.70;99.90
8269;DHT22;4174;48.304;16.364;2022-12-29T19:48:14;4.70;99.90
8269;DHT22;4174;48.304;16.364;2022-12-29T19:54:16;4.60;99.90
8269;DHT22;4174;48.304;16.364;2022-12-29T20:00:20;4.60;99.90
8269;DHT22;4174;48.304;16.364;2022-12-29T20:06:23;4.70;99.90
8269;DHT22;4174;48.304;16.364;2022-12-29T20:12:27;4.90;99.90
8269;DHT22;4174;48.304;16.364;2022-12-29T20:18:30;5.00;99.90
8269;DHT22;4174;48.304;16.364;2022-12-29T20:24:34;4.90;99.90
8269;DHT22;4174;48.304;16.364;2022-12-29T20:30:36;4.90;99.90
8269;DHT22;4174;48.304;16.364;2022-12-29T20:36:41;5.00;99.90
8269;DHT22;4174;48.304;16.364;2022-12-29T20:42:43;4.90;99.90
8269;DHT22;4174;48.304;16.364;2022-12-29T20:48:47;4.90;99.90
8269;DHT22;4174;48.304;16.364;2022-12-29T20:54:50;4.90;99.90
8269;DHT22;4174;48.304;16.364;2022-12-29T21:00:54;4.70;99.90
8269;DHT22;4174;48.304;16.364;2022-12-29T21:06:56;4.60;99.90
8269;DHT22;4174;48.304;16.364;2022-12-29T21:12:59;4.70;99.90
8269;DHT22;4174;48.304;16.364;2022-12-29T21:19:03;4.80;99.90
8269;DHT22;4174;48.304;16.364;2022-12-29T21:25:08;4.70;99.90
8269;DHT22;4174;48.304;16.364;2022-12-29T21:31:23;4.60;99.90
8269;DHT22;4174;48.304;16.364;2022-12-29T21:37:27;4.60;99.90
8269;DHT22;4174;48.304;16.364;2022-12-29T21:43:31;4.40;99.90
8269;DHT22;4174;48.304;16.364;2022-12-29T21:49:34;4.40;99.90
8269;DHT22;4174;48.304;16.364;2022-12-29T21:55:38;4.20;99.90
8269;DHT22;4174;48.304;16.364;2022-12-29T22:01:43;4.10;99.90
8269;DHT22;4174;48.304;16.364;2022-12-29T22:07:52;4.00;99.90
8269;DHT22;4174;48.304;16.364;2022-12-29T22:14:01;3.70;99.90
8269;DHT22;4174;48.304;16.364;2022-12-29T22:20:06;3.70;99.90
8269;DHT22;4174;48.304;16.364;2022-12-29T22:26:11;3.70;99.90
8269;DHT22;4174;48.304;16.364;2022-12-29T22:32:13;3.60;99.90
8269;DHT22;4174;48.304;16.364;2022-12-29T22:38:16;3.60;99.90
8269;DHT22;4174;48.304;16.364;2022-12-29T22:44:20;3.50;99.90
8269;DHT22;4174;48.304;16.364;2022-12-29T22:50:24;3.40;99.90
8269;DHT22;4174;48.304;16.364;2022-12-29T22:56:28;3.30;99.90
8269;DHT22;4174;48.304;16.364;2022-12-29T23:02:33;3.30;99.90
8269;DHT22;4174;48.304;16.364;2022-12-29T23:08:36;3.30;99.90
8269;DHT22;4174;48.304;16.364;2022-12-29T23:14:38;3.40;99.90
8269;DHT22;4174;48.304;16.364;2022-12-29T23:20:41;3.20;99.90
8269;DHT22;4174;48.304;16.364;2022-12-29T23:26:44;3.10;99.90
8269;DHT22;4174;48.304;16.364;2022-12-29T23:32:47;3.00;99.90
8269;DHT22;4174;48.304;16.364;2022-12-29T23:38:50;3.00;99.90
8269;DHT22;4174;48.304;16.364;2022-12-29T23:44:54;3.10;99.90
8269;DHT22;4174;48.304;16.364;2022-12-29T23:50:58;3.10;99.90
8269;DHT22;4174;48.304;16.364;2022-12-29T23:57:01;3.20;99.90
